createdAt,value
2023-03-08T00:00:40.627Z,100.00
2023-03-08T00:03:25.738Z,100.00
2023-03-08T00:06:13.779Z,100.00
2023-03-08T00:09:01.147Z,100.00
2023-03-08T00:11:45.914Z,100.00
2023-03-08T00:14:30.930Z,100.00
2023-03-08T00:17:17.057Z,100.00
2023-03-08T00:20:01.906Z,100.00
2023-03-08T00:22:46.905Z,100.00
2023-03-08T00:25:32.028Z,100.00
2023-03-08T00:28:17.080Z,100.00
2023-03-08T00:31:05.646Z,100.00
2023-03-08T00:33:54.740Z,100.00
2023-03-08T00:36:39.338Z,100.00
2023-03-08T00:39:24.780Z,100.00
2023-03-08T00:42:09.445Z,100.00
2023-03-08T00:44:54.460Z,100.00
2023-03-08T00:47:39.457Z,100.00
2023-03-08T00:50:24.351Z,100.00
2023-03-08T00:53:09.610Z,100.00
2023-03-08T00:55:59.620Z,100.00
2023-03-08T00:58:47.304Z,100.00
2023-03-08T01:01:33.172Z,100.00
2023-03-08T01:04:18.323Z,100.00
2023-03-08T01:07:03.344Z,100.00
2023-03-08T01:09:48.464Z,100.00
2023-03-08T01:12:35.945Z,100.00
2023-03-08T01:15:20.757Z,100.00
2023-03-08T01:18:05.672Z,100.00
2023-03-08T01:20:57.467Z,100.00
2023-03-08T01:23:42.695Z,100.00
2023-03-08T01:26:27.848Z,100.00
2023-03-08T01:29:13.399Z,100.00
2023-03-08T01:31:58.007Z,100.00
2023-03-08T01:34:42.724Z,100.00
2023-03-08T01:37:27.399Z,100.00
2023-03-08T01:40:16.119Z,100.00
2023-03-08T01:43:21.049Z,100.00
2023-03-08T01:46:24.873Z,100.00
2023-03-08T01:49:32.838Z,100.00
2023-03-08T01:52:29.264Z,100.00
2023-03-08T01:55:16.685Z,100.00
2023-03-08T01:58:01.971Z,100.00
2023-03-08T02:00:47.253Z,100.00
2023-03-08T02:03:32.705Z,100.00
2023-03-08T02:06:19.795Z,100.00
2023-03-08T02:09:05.143Z,100.00
2023-03-08T02:11:51.121Z,100.00
2023-03-08T02:14:36.574Z,100.00
2023-03-08T02:17:22.078Z,100.00
2023-03-08T02:20:24.707Z,100.00
2023-03-08T02:23:17.354Z,100.00
2023-03-08T02:26:05.405Z,100.00
2023-03-08T02:28:50.038Z,100.00
2023-03-08T02:31:34.925Z,100.00
2023-03-08T02:34:19.685Z,100.00
2023-03-08T02:37:04.799Z,100.00
2023-03-08T02:39:49.729Z,100.00
2023-03-08T02:42:34.814Z,100.00
2023-03-08T02:45:19.715Z,100.00
2023-03-08T02:48:06.677Z,100.00
2023-03-08T02:50:51.489Z,100.00
2023-03-08T02:53:36.425Z,100.00
2023-03-08T02:56:21.533Z,100.00
2023-03-08T02:59:06.256Z,100.00
2023-03-08T03:03:10.337Z,100.00
2023-03-08T03:05:55.085Z,100.00
2023-03-08T03:08:46.483Z,100.00
2023-03-08T03:11:31.751Z,100.00
2023-03-08T03:14:17.374Z,100.00
2023-03-08T03:17:03.214Z,100.00
2023-03-08T03:19:48.224Z,100.00
2023-03-08T03:22:33.424Z,100.00
2023-03-08T03:25:18.229Z,100.00
2023-03-08T03:28:04.774Z,100.00
2023-03-08T03:30:50.537Z,100.00
2023-03-08T03:33:35.699Z,100.00
2023-03-08T03:36:21.640Z,100.00
2023-03-08T03:39:06.854Z,100.00
2023-03-08T03:41:54.239Z,100.00
2023-03-08T03:44:38.949Z,100.00
2023-03-08T03:47:25.476Z,100.00
2023-03-08T03:50:14.932Z,100.00
2023-03-08T03:53:13.550Z,100.00
2023-03-08T03:56:05.923Z,100.00
2023-03-08T03:58:52.144Z,100.00
2023-03-08T04:01:39.221Z,100.00
2023-03-08T04:04:33.247Z,100.00
2023-03-08T04:07:18.439Z,100.00
2023-03-08T04:10:11.408Z,100.00
2023-03-08T04:12:56.202Z,100.00
2023-03-08T04:15:41.379Z,100.00
2023-03-08T04:18:29.214Z,100.00
2023-03-08T04:21:14.897Z,100.00
2023-03-08T04:24:00.832Z,100.00
2023-03-08T04:26:47.192Z,100.00
2023-03-08T04:29:36.365Z,100.00
2023-03-08T04:32:21.370Z,100.00
2023-03-08T04:35:10.762Z,100.00
2023-03-08T04:37:58.042Z,100.00
2023-03-08T04:41:01.310Z,100.00
2023-03-08T04:43:56.263Z,100.00
2023-03-08T04:46:48.681Z,100.00
2023-03-08T04:49:39.970Z,100.00
2023-03-08T04:52:25.355Z,100.00
2023-03-08T04:55:10.738Z,100.00
2023-03-08T04:57:56.738Z,100.00
2023-03-08T05:00:43.250Z,100.00
2023-03-08T05:03:28.022Z,100.00
2023-03-08T05:06:16.420Z,100.00
2023-03-08T05:09:01.726Z,100.00
2023-03-08T05:11:47.362Z,100.00
2023-03-08T05:14:33.508Z,100.00
2023-03-08T05:17:18.395Z,100.00
2023-03-08T05:20:03.839Z,100.00
2023-03-08T05:22:58.970Z,100.00
2023-03-08T05:25:54.694Z,100.00
2023-03-08T05:28:41.365Z,100.00
2023-03-08T05:31:26.772Z,100.00
2023-03-08T05:34:13.283Z,100.00
2023-03-08T05:37:02.418Z,100.00
2023-03-08T05:39:50.025Z,100.00
2023-03-08T05:42:38.829Z,100.00
2023-03-08T05:45:23.715Z,100.00
2023-03-08T05:48:09.183Z,100.00
2023-03-08T05:50:54.911Z,100.00
2023-03-08T05:53:40.821Z,100.00
2023-03-08T05:56:26.933Z,100.00
2023-03-08T05:59:26.826Z,100.00
2023-03-08T06:02:16.080Z,100.00
2023-03-08T06:05:05.649Z,100.00
2023-03-08T06:07:50.734Z,100.00
2023-03-08T06:10:36.472Z,100.00
2023-03-08T06:13:21.693Z,100.00
2023-03-08T06:16:08.176Z,100.00
2023-03-08T06:18:57.161Z,100.00
2023-03-08T06:21:45.047Z,100.00
2023-03-08T06:25:14.634Z,100.00
2023-03-08T06:32:06.301Z,100.00
2023-03-08T06:35:39.297Z,100.00
2023-03-08T06:39:03.271Z,100.00
2023-03-08T06:41:58.342Z,100.00
2023-03-08T06:44:48.032Z,100.00
2023-03-08T06:47:36.883Z,100.00
2023-03-08T06:50:31.396Z,100.00
2023-03-08T06:56:35.581Z,100.00
2023-03-08T06:59:30.114Z,100.00
2023-03-08T07:02:33.085Z,100.00
2023-03-08T07:13:59.858Z,100.00
2023-03-08T07:17:23.162Z,100.00
2023-03-08T07:20:44.249Z,100.00
2023-03-08T07:23:58.324Z,100.00
2023-03-08T07:28:08.708Z,100.00
2023-03-08T07:31:13.274Z,100.00
2023-03-08T07:35:08.699Z,100.00
2023-03-08T07:45:48.978Z,100.00
2023-03-08T07:53:46.488Z,100.00
2023-03-08T08:03:03.197Z,100.00
2023-03-08T08:05:54.262Z,100.00
2023-03-08T08:09:13.034Z,100.00
2023-03-08T08:12:37.796Z,100.00
2023-03-08T08:15:45.361Z,100.00
2023-03-08T08:18:37.274Z,100.00
2023-03-08T08:26:28.596Z,100.00
2023-03-08T08:29:49.614Z,100.00
2023-03-08T08:40:08.826Z,100.00
2023-03-08T08:42:55.868Z,100.00
2023-03-08T08:46:32.620Z,100.00
2023-03-08T08:49:46.541Z,100.00
2023-03-08T08:53:05.641Z,100.00
2023-03-08T08:55:53.670Z,100.00
2023-03-08T08:59:48.511Z,100.00
2023-03-08T09:25:23.353Z,100.00
2023-03-08T09:28:17.687Z,100.00
2023-03-08T09:34:52.035Z,100.00
2023-03-08T09:38:09.943Z,100.00
2023-03-08T09:41:29.303Z,100.00
2023-03-08T09:52:37.845Z,100.00
2023-03-08T09:55:55.302Z,100.00
2023-03-08T09:59:17.495Z,100.00
2023-03-08T10:02:02.709Z,100.00
2023-03-08T10:05:12.694Z,100.00
2023-03-08T10:08:36.904Z,100.00
2023-03-08T10:11:46.376Z,100.00
2023-03-08T10:15:07.119Z,100.00
2023-03-08T10:25:51.679Z,100.00
2023-03-08T10:28:36.827Z,100.00
2023-03-08T10:31:59.324Z,95.91
2023-03-08T10:34:46.653Z,100.00
2023-03-08T10:37:36.239Z,98.22
2023-03-08T10:40:48.360Z,100.00
2023-03-08T10:47:58.886Z,100.00
2023-03-08T10:50:45.851Z,100.00
2023-03-08T10:53:32.080Z,100.00
2023-03-08T10:56:37.703Z,100.00
2023-03-08T10:59:47.439Z,100.00
2023-03-08T11:02:35.583Z,100.00
2023-03-08T11:05:28.306Z,100.00
2023-03-08T11:08:21.123Z,100.00
2023-03-08T11:11:08.024Z,93.80
2023-03-08T11:13:54.015Z,85.56
2023-03-08T11:17:05.498Z,84.08
2023-03-08T11:20:16.312Z,83.29
2023-03-08T11:23:26.237Z,81.77
2023-03-08T11:27:39.760Z,80.49
2023-03-08T11:30:39.132Z,85.87
2023-03-08T11:34:01.948Z,97.37
2023-03-08T11:37:09.025Z,100.00
2023-03-08T11:40:06.087Z,100.00
2023-03-08T11:43:24.728Z,100.00
2023-03-08T11:46:48.455Z,100.00
2023-03-08T11:49:48.110Z,100.00
2023-03-08T11:53:04.116Z,100.00
2023-03-08T11:56:02.972Z,100.00
2023-03-08T11:58:52.748Z,100.00
2023-03-08T12:02:03.276Z,100.00
2023-03-08T12:08:38.620Z,100.00
2023-03-08T12:11:36.431Z,100.00
2023-03-08T12:14:28.607Z,100.00
2023-03-08T12:17:34.388Z,100.00
2023-03-08T12:20:45.504Z,100.00
2023-03-08T12:23:39.816Z,100.00
2023-03-08T12:26:45.640Z,100.00
2023-03-08T12:29:49.127Z,100.00
2023-03-08T12:32:37.916Z,100.00
2023-03-08T12:35:22.952Z,100.00
2023-03-08T12:38:20.341Z,100.00
2023-03-08T12:41:25.795Z,100.00
2023-03-08T12:44:58.660Z,100.00
2023-03-08T12:47:55.631Z,100.00
2023-03-08T12:50:44.675Z,100.00
2023-03-08T12:53:40.171Z,100.00
2023-03-08T12:56:30.652Z,100.00
2023-03-08T12:59:15.348Z,100.00
2023-03-08T13:02:04.678Z,100.00
2023-03-08T13:05:00.692Z,100.00
2023-03-08T13:08:11.778Z,100.00
2023-03-08T13:11:04.358Z,100.00
2023-03-08T13:14:01.060Z,100.00
2023-03-08T13:16:49.292Z,100.00
2023-03-08T13:19:35.419Z,100.00
2023-03-08T13:22:28.129Z,100.00
2023-03-08T13:25:27.716Z,100.00
2023-03-08T13:28:21.269Z,100.00
2023-03-08T13:31:31.618Z,100.00
2023-03-08T13:34:30.762Z,100.00
2023-03-08T13:37:24.080Z,100.00
2023-03-08T13:40:18.513Z,100.00
2023-03-08T13:43:05.025Z,100.00
2023-03-08T13:45:58.189Z,100.00
2023-03-08T13:48:44.645Z,100.00
2023-03-08T13:51:29.815Z,100.00
2023-03-08T13:54:19.770Z,100.00
2023-03-08T13:57:16.796Z,100.00
2023-03-08T14:00:21.410Z,100.00
2023-03-08T14:03:06.948Z,100.00
2023-03-08T14:05:52.362Z,100.00
2023-03-08T14:08:37.377Z,100.00
2023-03-08T14:11:26.482Z,100.00
2023-03-08T14:14:19.770Z,100.00
2023-03-08T14:17:04.999Z,100.00
2023-03-08T14:20:21.393Z,100.00
2023-03-08T14:23:23.717Z,100.00
2023-03-08T14:26:28.278Z,100.00
2023-03-08T14:29:21.605Z,100.00
2023-03-08T14:32:30.794Z,100.00
2023-03-08T14:35:22.432Z,100.00
2023-03-08T14:38:23.419Z,100.00
2023-03-08T14:41:10.648Z,100.00
2023-03-08T14:43:56.063Z,100.00
2023-03-08T14:46:41.222Z,100.00
2023-03-08T14:49:28.985Z,99.70
2023-03-08T14:52:20.697Z,98.16
2023-03-08T14:55:22.566Z,95.65
2023-03-08T14:58:13.104Z,94.00
2023-03-08T15:01:01.074Z,95.10
2023-03-08T15:03:46.083Z,94.56
2023-03-08T15:06:35.745Z,95.98
2023-03-08T15:09:21.939Z,98.50
2023-03-08T15:12:08.891Z,100.00
2023-03-08T15:14:53.574Z,100.00
2023-03-08T15:17:38.579Z,100.00
2023-03-08T15:20:24.401Z,100.00
2023-03-08T15:23:15.575Z,100.00
2023-03-08T15:26:00.470Z,100.00
2023-03-08T15:28:45.377Z,100.00
2023-03-08T15:31:31.535Z,100.00
2023-03-08T15:34:16.247Z,100.00
2023-03-08T15:37:01.076Z,100.00
2023-03-08T15:39:46.078Z,100.00
2023-03-08T15:42:31.275Z,100.00
2023-03-08T15:45:16.500Z,100.00
2023-03-08T15:48:04.517Z,100.00
2023-03-08T15:50:49.635Z,100.00
2023-03-08T15:53:35.567Z,100.00
2023-03-08T15:56:22.157Z,100.00
2023-03-08T15:59:06.918Z,100.00
2023-03-08T16:01:51.994Z,100.00
2023-03-08T16:04:37.075Z,100.00
2023-03-08T16:07:22.249Z,100.00
2023-03-08T16:10:10.018Z,100.00
2023-03-08T16:12:54.989Z,100.00
2023-03-08T16:15:40.892Z,100.00
2023-03-08T16:18:27.573Z,100.00
2023-03-08T16:21:12.692Z,100.00
2023-03-08T16:23:58.939Z,100.00
2023-03-08T16:26:43.935Z,100.00
2023-03-08T16:29:28.940Z,100.00
2023-03-08T16:32:14.485Z,100.00
2023-03-08T16:35:00.416Z,100.00
2023-03-08T16:37:45.180Z,100.00
2023-03-08T16:40:30.657Z,100.00
2023-03-08T16:43:16.940Z,100.00
2023-03-08T16:46:02.098Z,100.00
2023-03-08T16:48:49.503Z,100.00
2023-03-08T16:51:36.612Z,100.00
2023-03-08T16:54:22.774Z,100.00
2023-03-08T16:57:18.751Z,100.00
2023-03-08T17:00:06.060Z,100.00
2023-03-08T17:02:51.075Z,100.00
2023-03-08T17:05:39.685Z,100.00
2023-03-08T17:08:24.697Z,100.00
2023-03-08T17:11:24.967Z,100.00
2023-03-08T17:14:11.477Z,100.00
2023-03-08T17:16:56.700Z,100.00
2023-03-08T17:19:41.456Z,100.00
2023-03-08T17:22:26.684Z,100.00
2023-03-08T17:25:11.069Z,100.00
2023-03-08T17:27:55.795Z,100.00
2023-03-08T17:30:42.200Z,100.00
2023-03-08T17:33:26.987Z,100.00
2023-03-08T17:36:13.448Z,100.00
2023-03-08T17:38:58.474Z,100.00
2023-03-08T17:41:44.236Z,100.00
2023-03-08T17:44:29.212Z,100.00
2023-03-08T17:47:13.614Z,100.00
2023-03-08T17:49:58.267Z,100.00
2023-03-08T17:52:43.341Z,100.00
2023-03-08T17:55:32.325Z,100.00
2023-03-08T17:58:19.245Z,100.00
2023-03-08T18:01:18.952Z,100.00
2023-03-08T18:04:04.493Z,100.00
2023-03-08T18:06:49.084Z,100.00
2023-03-08T18:09:34.220Z,100.00
2023-03-08T18:12:19.223Z,100.00
2023-03-08T18:15:04.197Z,100.00
2023-03-08T18:17:49.619Z,100.00
2023-03-08T18:20:34.632Z,100.00
2023-03-08T18:23:21.446Z,100.00
2023-03-08T18:26:06.474Z,100.00
2023-03-08T18:28:51.881Z,100.00
2023-03-08T18:31:36.627Z,100.00
2023-03-08T18:34:21.509Z,100.00
2023-03-08T18:37:06.494Z,100.00
2023-03-08T18:39:54.698Z,100.00
2023-03-08T18:42:40.317Z,100.00
2023-03-08T18:45:25.281Z,100.00
2023-03-08T18:48:10.016Z,100.00
2023-03-08T18:50:54.708Z,100.00
2023-03-08T18:53:39.724Z,100.00
2023-03-08T18:56:26.336Z,100.00
2023-03-08T18:59:13.469Z,100.00
2023-03-08T19:01:57.995Z,100.00
2023-03-08T19:04:43.032Z,100.00
2023-03-08T19:07:27.759Z,100.00
2023-03-08T19:10:14.173Z,100.00
2023-03-08T19:12:58.679Z,100.00
2023-03-08T19:15:43.846Z,100.00
2023-03-08T19:18:28.755Z,100.00
2023-03-08T19:21:16.624Z,100.00
2023-03-08T19:24:01.965Z,100.00
2023-03-08T19:26:49.541Z,100.00
2023-03-08T19:29:34.568Z,100.00
2023-03-08T19:32:19.530Z,100.00
2023-03-08T19:35:04.213Z,100.00
2023-03-08T19:37:49.747Z,100.00
2023-03-08T19:40:34.776Z,100.00
2023-03-08T19:43:19.807Z,100.00
2023-03-08T19:46:05.153Z,100.00
2023-03-08T19:48:50.058Z,100.00
2023-03-08T19:51:35.716Z,100.00
2023-03-08T19:54:22.558Z,100.00
2023-03-08T19:57:08.651Z,100.00
2023-03-08T19:59:54.084Z,100.00
2023-03-08T20:02:42.070Z,100.00
2023-03-08T20:05:27.184Z,100.00
2023-03-08T20:08:13.354Z,100.00
2023-03-08T20:10:58.189Z,100.00
2023-03-08T20:13:42.956Z,100.00
2023-03-08T20:16:28.219Z,100.00
2023-03-08T20:19:13.387Z,100.00
2023-03-08T20:21:58.175Z,100.00
2023-03-08T20:24:43.283Z,100.00
2023-03-08T20:27:29.189Z,100.00
2023-03-08T20:30:14.784Z,100.00
2023-03-08T20:32:59.712Z,100.00
2023-03-08T20:35:47.229Z,100.00
2023-03-08T20:38:32.683Z,100.00
2023-03-08T20:41:18.367Z,100.00
2023-03-08T20:44:03.182Z,100.00
2023-03-08T20:46:48.380Z,100.00
2023-03-08T20:49:33.234Z,100.00
2023-03-08T20:52:18.430Z,100.00
2023-03-08T20:55:03.843Z,100.00
2023-03-08T20:57:51.308Z,100.00
2023-03-08T21:00:36.793Z,100.00
2023-03-08T21:03:21.370Z,100.00
2023-03-08T21:06:14.635Z,100.00
2023-03-08T21:09:00.121Z,100.00
2023-03-08T21:11:45.113Z,100.00
2023-03-08T21:14:29.990Z,100.00
2023-03-08T21:17:15.189Z,100.00
2023-03-08T21:20:00.032Z,100.00
2023-03-08T21:22:44.687Z,100.00
2023-03-08T21:25:33.004Z,100.00
2023-03-08T21:28:20.319Z,100.00
2023-03-08T21:31:10.484Z,100.00
2023-03-08T21:33:55.708Z,100.00
2023-03-08T21:36:40.598Z,100.00
2023-03-08T21:39:26.261Z,100.00
2023-03-08T21:42:10.950Z,100.00
2023-03-08T21:44:55.623Z,100.00
2023-03-08T21:47:40.225Z,100.00
2023-03-08T21:50:26.508Z,100.00
2023-03-08T21:53:11.537Z,100.00
2023-03-08T21:55:56.667Z,100.00
2023-03-08T21:58:42.466Z,100.00
2023-03-08T22:01:29.253Z,100.00
2023-03-08T22:04:15.717Z,100.00
2023-03-08T22:07:00.570Z,100.00
2023-03-08T22:09:45.543Z,100.00
2023-03-08T22:12:30.439Z,100.00
2023-03-08T22:15:15.289Z,100.00
2023-03-08T22:18:00.473Z,100.00
2023-03-08T22:20:45.091Z,100.00
2023-03-08T22:23:31.470Z,100.00
2023-03-08T22:26:16.683Z,100.00
2023-03-08T22:29:01.319Z,100.00
2023-03-08T22:31:45.987Z,100.00
2023-03-08T22:34:30.670Z,100.00
2023-03-08T22:37:15.709Z,100.00
2023-03-08T22:40:00.293Z,100.00
2023-03-08T22:42:46.387Z,100.00
2023-03-08T22:45:31.414Z,100.00
2023-03-08T22:48:16.168Z,100.00
2023-03-08T22:51:10.425Z,100.00
2023-03-08T22:53:58.488Z,100.00
2023-03-08T22:56:44.214Z,100.00
2023-03-08T22:59:28.775Z,100.00
2023-03-08T23:02:14.408Z,100.00
2023-03-08T23:04:58.892Z,100.00
2023-03-08T23:07:44.062Z,100.00
2023-03-08T23:10:28.896Z,100.00
2023-03-08T23:13:21.613Z,100.00
2023-03-08T23:16:16.977Z,100.00
2023-03-08T23:19:02.628Z,100.00
2023-03-08T23:21:47.885Z,100.00
2023-03-08T23:24:32.745Z,100.00
2023-03-08T23:27:17.406Z,100.00
2023-03-08T23:30:01.997Z,100.00
2023-03-08T23:32:47.184Z,100.00
2023-03-08T23:35:32.169Z,100.00
2023-03-08T23:38:17.010Z,100.00
2023-03-08T23:41:08.316Z,100.00
2023-03-08T23:43:54.377Z,100.00
2023-03-08T23:46:39.568Z,100.00
2023-03-08T23:49:24.596Z,100.00
2023-03-08T23:52:09.627Z,100.00
2023-03-08T23:54:54.523Z,100.00
2023-03-08T23:57:39.766Z,100.00
